Česky Dansk Deutsch English Español Suomi Français Magyar Italiano Nederlands norsk Polski Português svenska Türkçe

 

Het Weer

Bratislava Ivanka (Slowakije)

17:30, 22 augustus 2016 (GMT)

NWNNE
WE
SWSSE
Home            
Bratislava Ivanka Wien / Schwechat-Flughafen Piestany Piestany Nitra Niederosterreich / Lugplatz Voslau Niederosterreich / Wiener Neustadt-Ost Flugplatz Tulln Kunovice Brno / Turany Szombathely Papa Krems-Langenlois Prievidza Holesov Punitz-Gussing Szentkiralyszabadja Sliac Sliac Dolny Hricov Budaors Siofok Budapest Met Center

Om een weerknop op uw website of weblog te plaatsen, copieer onderstaande code en plak die in uw pagina. In het eerste vakje staat HTML-code, in het tweede vakje UBB-code.


Add to Google

Details

Wind speed:3 bf, 7 kn, 3.6 m/s, 8.1 miles/h, 13.0 km/h
Wind direction:N, 350°
Visibility:Greater than 10000 m, 10 km, 32800 ft, 6.2 miles
Clouds:CAVOC
Temperature:20°C, 68°F
Dew-point:13°C, 55°F
Atmospheric pressure:1025 hPa, 768.8 mmHg, 30.27 inHg, 1.012 atm
Relative humidity:64.1 %
METAR:LZIB 221730Z 35007KT CAVOK 20/13 Q1025 NOSIG

Snelkoppelingen

Actuele weersinformatie van de hele wereld. Voeg locaties toe met het plus (+) symbool. Deze snelkoppelingen kunnen worden toegevoegd aan Google.

Lid van de Technetium groep

website free tracking
StatCounter NetStat W3C Validator

28-05-2020 05:13:56
astro.technetium.be money.technetium.be phote.technetium.be tafeltennistafel.technetium.be www.ligfiets.net